Pays
Station

 

Conditions  météo  pour  Monbaca Benguela  -  Angola    Angola

  
29 °C
    
 
 

METAR pour Monbaca Benguela :

FNBG 201600Z 30016KT 9999 FEW015 SCT020 FEW030CB BKN090 29/24 Q1007

 

Voici le bulletin pour Monbaca Benguela - Angola.
 
Le bulletin a été fait il y a 7 heures et 7 minutes, à 16:00 UTC .
Le vent soufflait à la vitesse de 8.2 mètres par seconde de Ouest/Nord-ouest (300°).
 
La température était de 29 °C, avec un point de rosée à 24 °C.
La température ressentie était de 33 °C.
 
La pression atmosphérique était de 1007 hPa.
L'humidité relative était de 74.5%.
 
Il y avait 1 à 2/8ème de nébulosité à une hauteur de 457 mètres, 3 à 4/8ème de nébulosité à une hauteur de 610 mètres et 1 à 2/8ème cumulonimbus de nébulosité à une hauteur de 914 mètres.
 
La visibilité globale était de supérieure à 10 kilomètres.
 

 
 
 

Pays :   A   B   C   D   E   F   G   H   I   J   K   L   M   N   O   P   Q   R   S   T   U   V   W   Y   Z

 

Partenaires :  Info Météo avec Met'info
Météo Marine avec MeteoMarine.net
Infos Site  |  Infos Légales  |  Crédits  |  Confidentialité
Contactez-nous  |  Ajouter aux favoris
© 2013-2018 METAR - Tous droits réservés